Time;durP1;ratioP1;P1;durP2;ratioP2;P2;SDS_P1;SDS_P2;PMS_P1;PMS_P2;Temp;Humidity;BMP_temperature;BMP_pressure;BME280_temperature;BME280_humidity;BME280_pressure;Samples;Min_cycle;Max_cycle;Signal;HPM_P1;HPM_P2
2021/03/15 00:00:16;;;;;;;7.60;2.40;;;7.80;95.70;;;;;;5061387;28;20034;-92
2021/03/15 00:02:43;;;;;;;10.25;2.80;;;7.80;95.80;;;;;;5068833;28;20031;-92
2021/03/15 00:05:13;;;;;;;12.75;3.25;;;7.80;95.70;;;;;;5080024;28;20008;-92
2021/03/15 00:07:40;;;;;;;10.05;3.10;;;7.70;95.80;;;;;;5075140;28;20036;-93
2021/03/15 00:10:08;;;;;;;10.15;3.70;;;7.70;95.80;;;;;;5075334;28;20016;-93
2021/03/15 00:12:34;;;;;;;14.30;4.38;;;7.60;95.90;;;;;;5084423;28;20038;-92
2021/03/15 00:15:00;;;;;;;10.20;4.15;;;7.60;96.00;;;;;;5077332;28;20012;-92
2021/03/15 00:17:26;;;;;;;8.75;3.90;;;7.50;96.20;;;;;;5077064;28;20020;-92
2021/03/15 00:19:52;;;;;;;16.85;5.68;;;7.50;96.40;;;;;;5060154;28;20028;-91
2021/03/15 00:22:17;;;;;;;11.43;4.25;;;7.40;96.60;;;;;;5060546;28;20024;-91
2021/03/15 00:24:43;;;;;;;9.38;3.60;;;7.40;96.70;;;;;;5056731;28;20036;-92
2021/03/15 00:27:09;;;;;;;12.23;4.47;;;7.40;96.70;;;;;;5039901;28;20032;-93
2021/03/15 00:29:34;;;;;;;10.55;3.70;;;7.40;96.80;;;;;;5039468;28;20070;-91
2021/03/15 00:32:00;;;;;;;7.03;2.92;;;7.30;96.90;;;;;;5066493;28;20111;-91
2021/03/15 00:34:26;;;;;;;6.45;2.90;;;7.30;97.00;;;;;;5058066;28;20090;-89
2021/03/15 00:36:51;;;;;;;6.78;2.38;;;7.40;97.00;;;;;;5048588;28;20024;-90
2021/03/15 00:39:17;;;;;;;6.35;2.60;;;7.40;97.10;;;;;;5079755;28;20020;-90
2021/03/15 00:41:43;;;;;;;6.78;2.45;;;7.50;97.20;;;;;;5091888;28;20111;-90
2021/03/15 00:44:09;;;;;;;6.82;2.92;;;7.50;97.20;;;;;;5088541;28;20110;-89
2021/03/15 00:46:37;;;;;;;7.38;2.80;;;7.50;97.10;;;;;;5095923;28;20024;-88
2021/03/15 00:49:03;;;;;;;8.98;2.60;;;7.50;97.20;;;;;;5064022;28;20020;-89
2021/03/15 00:51:28;;;;;;;8.45;2.08;;;7.50;97.20;;;;;;5059046;28;20028;-89
2021/03/15 00:53:54;;;;;;;7.55;2.20;;;7.50;97.20;;;;;;5087566;28;20123;-90
2021/03/15 00:56:20;;;;;;;7.70;2.08;;;7.50;97.30;;;;;;5078874;28;20032;-89
2021/03/15 00:58:45;;;;;;;4.10;1.98;;;7.50;97.20;;;;;;5067681;28;20030;-89
2021/03/15 01:01:16;;;;;;;6.05;2.10;;;7.50;97.20;;;;;;5081045;28;20024;-90
2021/03/15 01:03:42;;;;;;;;;;;7.50;97.40;;;;;;5083352;28;20038;-90
2021/03/15 01:06:10;;;;;;;7.47;2.63;;;7.50;97.20;;;;;;5078601;28;20347;-88
2021/03/15 01:08:37;;;;;;;8.63;2.70;;;7.50;97.30;;;;;;5080993;28;20444;-86
2021/03/15 01:11:02;;;;;;;6.20;2.35;;;7.50;97.70;;;;;;5054980;28;20020;-88
2021/03/15 01:13:28;;;;;;;4.03;2.13;;;7.40;97.40;;;;;;5068224;28;20024;-89
2021/03/15 01:15:54;;;;;;;5.43;2.13;;;7.50;97.50;;;;;;5073500;28;20020;-89
2021/03/15 01:18:19;;;;;;;6.30;2.60;;;7.40;97.50;;;;;;5069458;28;20463;-88
2021/03/15 01:20:45;;;;;;;6.13;2.50;;;7.40;97.40;;;;;;5041373;28;20021;-89
2021/03/15 01:23:11;;;;;;;7.22;2.92;;;7.40;97.40;;;;;;5042544;28;20020;-89
2021/03/15 01:25:40;;;;;;;5.18;2.47;;;7.40;97.30;;;;;;5074904;28;20523;-89
2021/03/15 01:28:09;;;;;;;5.50;2.58;;;7.30;97.50;;;;;;5081515;28;20028;-89
2021/03/15 01:30:36;;;;;;;8.20;3.63;;;7.30;97.50;;;;;;5071783;28;20067;-88
2021/03/15 01:33:03;;;;;;;5.38;2.70;;;7.30;97.80;;;;;;5064984;28;20020;-89
2021/03/15 01:35:29;;;;;;;6.82;2.70;;;7.40;97.60;;;;;;5075031;28;20126;-89
2021/03/15 01:37:55;;;;;;;7.43;2.90;;;7.40;97.60;;;;;;5046455;28;20036;-89
2021/03/15 01:40:22;;;;;;;5.53;2.60;;;7.40;97.60;;;;;;5092452;28;20035;-90
2021/03/15 01:42:48;;;;;;;8.25;2.88;;;7.30;97.70;;;;;;5075194;28;20023;-89
2021/03/15 01:45:14;;;;;;;7.95;2.78;;;7.30;97.80;;;;;;5075685;28;20020;-89
2021/03/15 01:47:42;;;;;;;6.57;2.70;;;7.30;97.80;;;;;;5072368;28;20040;-88
2021/03/15 01:50:09;;;;;;;4.50;2.10;;;7.40;97.90;;;;;;5055925;28;20033;-88
2021/03/15 01:52:36;;;;;;;6.43;3.00;;;7.40;97.90;;;;;;5072829;28;20040;-86
2021/03/15 01:55:03;;;;;;;5.70;2.80;;;7.40;97.90;;;;;;5051473;28;20061;-89
2021/03/15 01:57:29;;;;;;;4.65;2.78;;;7.40;97.80;;;;;;5051510;28;20029;-89
2021/03/15 01:59:55;;;;;;;6.15;3.15;;;7.40;98.20;;;;;;5031004;28;20091;-89
2021/03/15 02:02:21;;;;;;;4.68;2.83;;;7.40;98.00;;;;;;5039285;28;20072;-89
2021/03/15 02:04:46;;;;;;;5.32;2.90;;;7.40;98.00;;;;;;5049625;28;20051;-89
2021/03/15 02:07:12;;;;;;;6.20;3.42;;;7.30;97.90;;;;;;5031490;28;20034;-89
2021/03/15 02:09:38;;;;;;;5.50;3.25;;;7.40;97.90;;;;;;5047794;28;20051;-88
2021/03/15 02:12:22;;;;;;;6.63;3.08;;;7.40;97.90;;;;;;5018691;28;20021;-89
2021/03/15 02:15:22;;;;;;;5.60;2.92;;;7.40;98.00;;;;;;5051599;28;20017;-90
2021/03/15 02:17:50;;;;;;;6.65;2.88;;;7.40;98.00;;;;;;5052611;28;20068;-90
2021/03/15 02:20:27;;;;;;;4.97;2.90;;;7.40;98.10;;;;;;5068764;28;20017;-90
2021/03/15 02:23:09;;;;;;;6.00;3.00;;;7.40;98.10;;;;;;5068487;28;20092;-88
2021/03/15 02:25:57;;;;;;;6.88;3.13;;;7.40;98.10;;;;;;5051705;28;20163;-90
2021/03/15 02:28:43;;;;;;;8.40;3.15;;;7.40;98.10;;;;;;5052050;28;20040;-89
2021/03/15 02:31:34;;;;;;;9.48;3.83;;;7.40;98.20;;;;;;5051772;28;20040;-89
2021/03/15 02:34:38;;;;;;;6.90;3.05;;;7.40;98.20;;;;;;5051768;28;20075;-89
2021/03/15 02:37:08;;;;;;;5.82;3.00;;;7.40;98.20;;;;;;5052054;28;20037;-89
2021/03/15 02:39:40;;;;;;;7.25;2.97;;;7.40;98.30;;;;;;5052386;28;20028;-89
2021/03/15 02:42:17;;;;;;;7.15;2.92;;;7.40;98.30;;;;;;5053063;28;20020;-89
2021/03/15 02:44:51;;;;;;;7.57;3.05;;;7.40;98.30;;;;;;5055614;28;20021;-88
2021/03/15 02:47:21;;;;;;;6.28;2.80;;;7.40;98.30;;;;;;5055377;28;20025;-90
2021/03/15 02:49:50;;;;;;;6.03;2.58;;;7.40;98.40;;;;;;5054730;28;20017;-89
2021/03/15 02:52:18;;;;;;;6.97;3.45;;;7.40;98.40;;;;;;5055451;28;20051;-89
2021/03/15 02:54:46;;;;;;;4.57;2.88;;;7.40;98.40;;;;;;5053870;28;20091;-89
2021/03/15 02:57:16;;;;;;;4.97;2.63;;;7.40;98.40;;;;;;5055518;28;20079;-89
2021/03/15 02:59:43;;;;;;;4.30;2.40;;;7.50;98.40;;;;;;5054855;28;20024;-89
2021/03/15 03:02:10;;;;;;;3.78;2.40;;;7.50;98.40;;;;;;5034595;28;20025;-88
2021/03/15 03:04:37;;;;;;;3.72;2.35;;;7.50;98.40;;;;;;5053732;28;20098;-89
2021/03/15 03:07:05;;;;;;;4.35;2.30;;;7.50;98.40;;;;;;5034244;28;20037;-88
2021/03/15 03:09:33;;;;;;;3.78;2.25;;;7.50;98.40;;;;;;5037769;28;20112;-89
2021/03/15 03:12:00;;;;;;;4.35;2.20;;;7.50;98.40;;;;;;5037828;28;20032;-89
2021/03/15 03:14:27;;;;;;;3.20;2.08;;;7.50;98.40;;;;;;5054293;28;20021;-88
2021/03/15 03:16:55;;;;;;;5.70;2.28;;;7.60;98.40;;;;;;5034758;28;20030;-90
2021/03/15 03:19:22;;;;;;;4.05;2.67;;;7.50;98.40;;;;;;5054771;28;20465;-90
2021/03/15 03:21:49;;;;;;;3.35;2.17;;;7.50;98.40;;;;;;5054133;28;20028;-89
2021/03/15 03:24:15;;;;;;;5.82;3.65;;;7.50;98.40;;;;;;5035025;28;20405;-89
2021/03/15 03:26:43;;;;;;;3.72;2.40;;;7.50;98.40;;;;;;5048395;28;20033;-89
2021/03/15 03:29:12;;;;;;;4.75;2.90;;;7.50;98.40;;;;;;5041630;28;20027;-89
2021/03/15 03:31:41;;;;;;;4.32;2.20;;;7.50;98.40;;;;;;5053887;28;20116;-90
2021/03/15 03:34:08;;;;;;;3.78;3.05;;;7.50;98.40;;;;;;5037518;28;20112;-89
2021/03/15 03:36:34;;;;;;;6.50;3.10;;;7.50;98.40;;;;;;5053472;28;20051;-89
2021/03/15 03:39:00;;;;;;;5.88;3.22;;;7.50;98.40;;;;;;5033350;28;20493;-89
2021/03/15 03:41:26;;;;;;;5.38;3.22;;;7.50;98.40;;;;;;5033793;28;20053;-88
2021/03/15 03:43:51;;;;;;;4.93;3.20;;;7.50;98.30;;;;;;5047367;28;20025;-88
2021/03/15 03:46:17;;;;;;;5.82;3.17;;;7.50;98.40;;;;;;5037010;28;20386;-89
2021/03/15 03:48:44;;;;;;;5.28;3.50;;;7.50;98.50;;;;;;5054738;28;20128;-88
2021/03/15 03:51:10;;;;;;;6.43;3.40;;;7.50;98.40;;;;;;5054501;28;20028;-89
2021/03/15 03:53:47;;;;;;;6.20;3.40;;;7.40;98.40;;;;;;5055875;28;20021;-89
2021/03/15 03:56:24;;;;;;;6.10;3.58;;;7.40;98.50;;;;;;5089937;28;20036;-89
2021/03/15 03:58:54;;;;;;;8.75;3.75;;;7.40;98.50;;;;;;5069654;28;20480;-87
2021/03/15 04:01:28;;;;;;;8.52;4.20;;;7.40;98.50;;;;;;5088286;28;20035;-88
2021/03/15 04:03:55;;;;;;;7.75;3.63;;;7.40;98.50;;;;;;5093364;28;20021;-88
2021/03/15 04:06:25;;;;;;;6.05;3.17;;;7.40;98.80;;;;;;5084144;28;20021;-89
2021/03/15 04:08:59;;;;;;;7.30;4.35;;;7.40;98.60;;;;;;5073870;28;20025;-86
2021/03/15 04:11:29;;;;;;;9.52;4.38;;;7.40;98.60;;;;;;5096888;28;20062;-88
2021/03/15 04:13:56;;;;;;;11.32;4.50;;;7.40;98.50;;;;;;5106139;28;20448;-87
2021/03/15 04:16:32;;;;;;;8.18;4.35;;;7.40;98.60;;;;;;5105320;28;20035;-89
2021/03/15 04:19:02;;;;;;;13.55;4.47;;;7.40;98.60;;;;;;5076477;28;20017;-88
2021/03/15 04:21:30;;;;;;;10.15;4.63;;;7.40;98.70;;;;;;5081757;28;20106;-88
2021/03/15 04:23:58;;;;;;;11.18;4.85;;;7.30;98.70;;;;;;5047111;28;20479;-89
2021/03/15 04:26:25;;;;;;;8.70;4.72;;;7.40;98.70;;;;;;5070995;28;20016;-88
2021/03/15 04:28:55;;;;;;;10.73;4.45;;;7.30;98.60;;;;;;5064161;28;20024;-88
2021/03/15 04:31:23;;;;;;;12.32;6.13;;;7.30;98.70;;;;;;5095038;28;20336;-88
2021/03/15 04:33:49;;;;;;;9.60;5.03;;;7.30;98.70;;;;;;5073997;28;20514;-89
2021/03/15 04:36:16;;;;;;;13.25;4.93;;;7.30;98.70;;;;;;5051186;28;20028;-89
2021/03/15 04:38:43;;;;;;;9.07;5.10;;;7.30;98.70;;;;;;5075916;28;20055;-89
2021/03/15 04:41:10;;;;;;;11.88;5.47;;;7.30;98.70;;;;;;5075794;28;20367;-89
2021/03/15 04:43:38;;;;;;;12.20;5.03;;;7.30;98.70;;;;;;5055886;28;20091;-89
2021/03/15 04:46:08;;;;;;;8.23;4.57;;;7.40;98.80;;;;;;5064364;28;20032;-89
2021/03/15 04:48:36;;;;;;;8.88;5.25;;;7.30;98.80;;;;;;5058953;28;20051;-89
2021/03/15 04:51:05;;;;;;;13.52;5.75;;;7.40;98.80;;;;;;5063700;28;20463;-88
2021/03/15 04:53:38;;;;;;;8.95;5.72;;;7.30;98.80;;;;;;5092365;28;20020;-89
2021/03/15 04:56:08;;;;;;;10.98;5.30;;;7.30;98.80;;;;;;5074679;28;20042;-88
2021/03/15 04:58:36;;;;;;;10.60;5.20;;;7.30;98.80;;;;;;5081040;28;20032;-88
2021/03/15 05:01:03;;;;;;;11.20;5.60;;;7.30;98.70;;;;;;5073553;28;20009;-88
2021/03/15 05:03:30;;;;;;;12.10;5.95;;;7.30;98.80;;;;;;5076051;28;20031;-89
2021/03/15 05:05:58;;;;;;;10.95;5.45;;;7.30;99.10;;;;;;5093606;28;20020;-89
2021/03/15 05:08:37;;;;;;;11.20;5.63;;;7.30;98.90;;;;;;5066879;28;20139;-89
2021/03/15 05:11:03;;;;;;;9.27;4.93;;;7.30;98.90;;;;;;5071930;28;20528;-89
2021/03/15 05:13:32;;;;;;;9.93;5.60;;;7.30;98.80;;;;;;5075190;28;20036;-89
2021/03/15 05:15:59;;;;;;;12.23;5.10;;;7.30;98.80;;;;;;5074575;28;20464;-86
2021/03/15 05:18:27;;;;;;;9.25;4.20;;;7.30;98.80;;;;;;5075224;28;20073;-88
2021/03/15 05:20:53;;;;;;;10.05;5.03;;;7.30;98.80;;;;;;5055417;28;20028;-88
2021/03/15 05:23:20;;;;;;;10.10;5.80;;;7.30;98.80;;;;;;5057889;28;20024;-90
2021/03/15 05:25:51;;;;;;;10.02;4.78;;;7.30;98.80;;;;;;5058663;28;20479;-89
2021/03/15 05:28:18;;;;;;;9.20;4.93;;;7.30;98.80;;;;;;5073671;28;20020;-88
2021/03/15 05:30:46;;;;;;;11.55;5.38;;;7.30;98.80;;;;;;5066702;28;20012;-88
2021/03/15 05:33:14;;;;;;;12.48;5.05;;;7.30;98.80;;;;;;5059647;28;20077;-87
2021/03/15 05:35:45;;;;;;;10.43;5.20;;;7.30;98.80;;;;;;5076069;28;20016;-89
2021/03/15 05:38:11;;;;;;;8.40;4.68;;;7.30;98.80;;;;;;5074912;28;20364;-89
2021/03/15 05:40:39;;;;;;;11.05;5.10;;;7.30;98.90;;;;;;5075963;28;20008;-89
2021/03/15 05:43:25;;;;;;;10.15;4.50;;;7.30;98.80;;;;;;5053803;28;20052;-88
2021/03/15 05:46:35;;;;;;;10.00;4.45;;;7.30;98.80;;;;;;5063344;28;20012;-88
2021/03/15 05:49:49;;;;;;;13.80;4.75;;;7.20;98.80;;;;;;5074835;28;20088;-87
2021/03/15 05:52:26;;;;;;;8.77;4.43;;;7.20;98.80;;;;;;5056179;28;20017;-87
2021/03/15 05:55:00;;;;;;;8.32;4.43;;;7.20;98.80;;;;;;5072236;28;20504;-89
2021/03/15 05:58:00;;;;;;;8.82;4.30;;;7.20;98.80;;;;;;5064402;28;20020;-88
2021/03/15 06:01:04;;;;;;;8.27;4.30;;;7.20;98.90;;;;;;5074589;28;20020;-88
2021/03/15 06:03:48;;;;;;;11.43;4.55;;;7.20;98.80;;;;;;5075649;28;20031;-88
2021/03/15 06:06:17;;;;;;;10.13;4.55;;;7.20;98.70;;;;;;5065740;28;20367;-89
2021/03/15 06:08:47;;;;;;;9.90;4.70;;;7.20;98.60;;;;;;5055129;28;20107;-89
2021/03/15 06:11:18;;;;;;;9.65;4.32;;;7.10;98.70;;;;;;5074494;28;20012;-89
2021/03/15 06:13:44;;;;;;;;;;;7.10;98.80;;;;;;5090437;28;20506;-88
2021/03/15 06:16:11;;;;;;;9.95;5.05;;;7.10;98.80;;;;;;5063956;28;19911;-89
2021/03/15 06:18:38;;;;;;;8.82;4.05;;;7.10;98.80;;;;;;5082654;28;20146;-89
2021/03/15 06:21:04;;;;;;;11.65;5.10;;;7.10;98.80;;;;;;5078278;28;20415;-89
2021/03/15 06:23:31;;;;;;;11.90;5.28;;;7.10;98.80;;;;;;5059074;28;20020;-89
2021/03/15 06:25:57;;;;;;;10.27;4.82;;;7.10;98.90;;;;;;5060764;28;20017;-88
2021/03/15 06:28:24;;;;;;;9.75;4.88;;;7.10;98.80;;;;;;5073350;28;20122;-89
2021/03/15 06:30:51;;;;;;;8.73;4.20;;;7.10;98.80;;;;;;5074722;28;20012;-89
2021/03/15 06:33:18;;;;;;;10.38;4.70;;;7.10;98.90;;;;;;5068093;28;20078;-89
2021/03/15 06:35:49;;;;;;;13.27;5.50;;;7.10;98.90;;;;;;5076340;28;20098;-89
2021/03/15 06:38:19;;;;;;;9.65;5.15;;;7.10;98.90;;;;;;5073965;28;20112;-89
2021/03/15 06:40:45;;;;;;;12.93;5.85;;;7.10;98.90;;;;;;5053578;28;20024;-89
2021/03/15 06:43:15;;;;;;;10.98;5.72;;;7.10;98.80;;;;;;5075735;28;20021;-89
2021/03/15 06:45:45;;;;;;;10.43;5.10;;;7.10;99.20;;;;;;5051599;28;20031;-89
2021/03/15 06:48:11;;;;;;;14.23;5.20;;;7.10;98.90;;;;;;5064021;28;20020;-89
2021/03/15 06:50:37;;;;;;;12.20;5.03;;;7.10;98.90;;;;;;5057493;28;20025;-86
2021/03/15 06:53:05;;;;;;;12.63;5.03;;;7.20;99.00;;;;;;5058974;28;20016;-90
2021/03/15 06:55:34;;;;;;;11.35;4.75;;;7.20;99.00;;;;;;5059830;28;20055;-87
2021/03/15 06:58:00;;;;;;;8.20;4.75;;;7.20;98.90;;;;;;5092975;28;20024;-89
2021/03/15 07:00:29;;;;;;;15.90;5.65;;;7.20;98.90;;;;;;5087697;28;20020;-90
2021/03/15 07:03:01;;;;;;;12.55;4.97;;;7.10;98.80;;;;;;5095007;28;20062;-90
2021/03/15 07:05:28;;;;;;;10.57;5.28;;;7.20;99.00;;;;;;5077624;28;20016;-89
2021/03/15 07:07:56;;;;;;;13.85;5.32;;;7.10;98.90;;;;;;5057572;28;20046;-89
2021/03/15 07:10:26;;;;;;;12.68;5.00;;;7.20;99.00;;;;;;5061248;28;20020;-88
2021/03/15 07:13:17;;;;;;;16.67;4.78;;;7.20;99.10;;;;;;5078575;28;20020;-89
2021/03/15 07:15:44;;;;;;;11.85;5.15;;;7.20;99.10;;;;;;5081776;28;20028;-89
2021/03/15 07:18:12;;;;;;;17.05;5.40;;;7.20;98.90;;;;;;5073717;28;20051;-89
2021/03/15 07:20:47;;;;;;;17.25;5.22;;;7.20;99.00;;;;;;5077873;28;20108;-89
2021/03/15 07:23:13;;;;;;;19.67;4.70;;;7.20;98.90;;;;;;5078186;28;20015;-90
2021/03/15 07:25:40;;;;;;;15.13;5.13;;;7.20;99.00;;;;;;5072310;28;20460;-90
2021/03/15 07:28:06;;;;;;;15.50;5.00;;;7.20;99.00;;;;;;5069978;28;20033;-88
2021/03/15 07:30:42;;;;;;;13.02;4.75;;;7.20;98.90;;;;;;5054428;28;20024;-92
2021/03/15 07:33:11;;;;;;;13.63;4.40;;;7.30;99.00;;;;;;5077282;28;20061;-89
2021/03/15 07:35:38;;;;;;;14.55;4.35;;;7.30;99.00;;;;;;5077179;28;20042;-88
2021/03/15 07:38:04;;;;;;;15.85;5.32;;;7.30;99.10;;;;;;5068666;28;20108;-89
2021/03/15 07:40:45;;;;;;;14.65;4.15;;;7.30;99.00;;;;;;5074068;28;20050;-89
2021/03/15 07:43:16;;;;;;;25.58;5.47;;;7.30;99.00;;;;;;5072449;28;20069;-91
2021/03/15 07:45:47;;;;;;;14.02;4.50;;;7.30;99.00;;;;;;5079396;28;20012;-89
2021/03/15 07:48:14;;;;;;;;;;;7.40;99.00;;;;;;5076360;28;20033;-86
2021/03/15 07:50:42;;;;;;;14.57;4.35;;;7.30;99.00;;;;;;5082003;28;19912;-93
2021/03/15 07:53:08;;;;;;;16.65;4.55;;;7.30;99.00;;;;;;5066218;28;20024;-91
2021/03/15 07:55:36;;;;;;;17.58;4.68;;;7.30;99.00;;;;;;5061537;28;20091;-95
2021/03/15 07:58:02;;;;;;;15.90;3.70;;;7.30;98.90;;;;;;5063276;28;20028;-92
2021/03/15 08:00:28;;;;;;;13.07;3.80;;;7.30;99.00;;;;;;5089143;28;20103;-93
2021/03/15 08:02:56;;;;;;;15.80;4.22;;;7.40;99.20;;;;;;5084991;28;20028;-91
2021/03/15 08:05:22;;;;;;;12.50;3.40;;;7.40;99.20;;;;;;5079922;28;20020;-90
2021/03/15 08:07:48;;;;;;;17.23;4.25;;;7.50;99.20;;;;;;5087140;28;20024;-93
2021/03/15 08:10:14;;;;;;;16.75;5.38;;;7.60;99.20;;;;;;5082202;28;20073;-93
2021/03/15 08:12:43;;;;;;;15.27;3.65;;;7.60;99.20;;;;;;5069386;28;20036;-91
2021/03/15 08:15:11;;;;;;;7.93;3.08;;;7.60;99.20;;;;;;5076617;28;20453;-90
2021/03/15 08:17:42;;;;;;;13.20;3.22;;;7.60;99.20;;;;;;5058923;28;20126;-94
2021/03/15 08:20:08;;;;;;;12.68;2.78;;;7.70;99.10;;;;;;5082131;28;20035;-90
2021/03/15 08:22:41;;;;;;;10.38;2.70;;;7.70;98.90;;;;;;5068379;28;20024;-91
2021/03/15 08:25:10;;;;;;;10.77;2.10;;;7.70;98.80;;;;;;5089097;28;20015;-92
2021/03/15 08:27:40;;;;;;;8.25;2.00;;;7.70;98.80;;;;;;5081947;28;20020;-92
2021/03/15 08:30:14;;;;;;;14.73;2.25;;;7.70;98.80;;;;;;5108658;28;20055;-91
2021/03/15 08:32:42;;;;;;;12.15;2.67;;;7.80;98.70;;;;;;5089270;28;20020;-91
2021/03/15 08:35:09;;;;;;;9.15;1.70;;;7.80;98.00;;;;;;5094830;28;20012;-93
2021/03/15 08:37:53;;;;;;;14.55;1.83;;;7.80;97.90;;;;;;5090923;28;20032;-91
2021/03/15 08:40:43;;;;;;;16.08;2.33;;;7.80;97.80;;;;;;5090014;28;20067;-90
2021/03/15 08:43:17;;;;;;;12.00;3.05;;;7.80;97.70;;;;;;5072746;28;20456;-90
2021/03/15 08:45:51;;;;;;;14.13;3.00;;;7.80;97.90;;;;;;5070186;28;20031;-90
2021/03/15 08:48:18;;;;;;;12.23;2.17;;;7.80;97.60;;;;;;5074427;28;20040;-89
2021/03/15 08:50:46;;;;;;;12.18;2.25;;;7.90;97.60;;;;;;5067493;28;20024;-91
2021/03/15 08:53:38;;;;;;;10.68;1.88;;;7.90;97.40;;;;;;5067126;28;20012;-87
2021/03/15 08:56:10;;;;;;;7.88;1.77;;;7.90;97.50;;;;;;5070583;28;20053;-88
2021/03/15 08:58:41;;;;;;;11.98;1.88;;;8.00;97.40;;;;;;5072665;28;20042;-89
2021/03/15 09:01:17;;;;;;;9.60;1.75;;;8.00;96.70;;;;;;5086928;28;20058;-89
2021/03/15 09:03:49;;;;;;;12.65;1.85;;;8.00;96.80;;;;;;5056129;28;20019;-89
2021/03/15 09:06:36;;;;;;;15.57;2.78;;;8.10;96.70;;;;;;5074070;28;20023;-88
2021/03/15 09:09:06;;;;;;;12.05;1.60;;;8.10;96.50;;;;;;5076164;28;20050;-89
2021/03/15 09:11:35;;;;;;;12.57;1.95;;;8.20;96.80;;;;;;5087061;28;20506;-87
2021/03/15 09:14:26;;;;;;;10.48;1.35;;;8.30;96.90;;;;;;5077282;28;20460;-88
2021/03/15 09:17:13;;;;;;;10.93;1.52;;;8.30;96.90;;;;;;5076394;28;20028;-87
2021/03/15 09:19:38;;;;;;;7.53;1.60;;;8.40;96.20;;;;;;5071256;28;20024;-88
2021/03/15 09:22:23;;;;;;;8.63;1.85;;;8.40;96.50;;;;;;5083440;28;20024;-89
2021/03/15 09:24:54;;;;;;;9.23;1.70;;;8.50;96.70;;;;;;5076013;28;20035;-89
2021/03/15 09:27:20;;;;;;;4.72;1.52;;;8.50;96.60;;;;;;5092340;28;20027;-88
2021/03/15 09:30:02;;;;;;;12.70;1.90;;;8.60;96.40;;;;;;5069792;28;20035;-89
2021/03/15 09:32:32;;;;;;;12.13;2.35;;;8.60;96.00;;;;;;5072025;28;20108;-87
2021/03/15 09:35:01;;;;;;;10.52;1.90;;;8.60;95.60;;;;;;5076374;28;20482;-89
2021/03/15 09:37:28;;;;;;;14.15;1.88;;;8.70;95.70;;;;;;5060790;28;20468;-89
2021/03/15 09:39:55;;;;;;;9.38;1.88;;;8.70;95.50;;;;;;5084251;28;20013;-89
2021/03/15 09:42:21;;;;;;;8.48;1.30;;;8.70;95.70;;;;;;5062080;28;20016;-89
2021/03/15 09:44:47;;;;;;;10.30;1.85;;;8.80;95.60;;;;;;5080177;28;20027;-88
2021/03/15 09:47:21;;;;;;;10.00;1.65;;;8.80;95.10;;;;;;5075560;28;20026;-88
2021/03/15 09:49:47;;;;;;;8.18;1.63;;;8.90;95.30;;;;;;5061454;28;20023;-88
2021/03/15 09:52:20;;;;;;;11.25;1.75;;;9.00;94.80;;;;;;5057706;28;20024;-88
2021/03/15 09:54:54;;;;;;;7.70;1.80;;;9.00;94.60;;;;;;5090679;28;20044;-88
2021/03/15 09:57:21;;;;;;;8.55;1.30;;;9.00;94.20;;;;;;5071072;28;20042;-88
2021/03/15 09:59:48;;;;;;;7.20;1.58;;;9.10;93.60;;;;;;5063907;28;20024;-88
2021/03/15 10:02:34;;;;;;;7.50;1.40;;;9.10;93.60;;;;;;5094146;28;20099;-88
2021/03/15 10:04:59;;;;;;;8.00;1.52;;;9.10;94.10;;;;;;5096593;28;20127;-88
2021/03/15 10:07:25;;;;;;;6.40;1.65;;;9.20;93.10;;;;;;5045835;28;20049;-89
2021/03/15 10:09:51;;;;;;;8.50;1.42;;;9.20;92.60;;;;;;5069481;28;20025;-86
2021/03/15 10:12:16;;;;;;;10.73;1.48;;;9.20;92.30;;;;;;5075354;28;20027;-88
2021/03/15 10:14:42;;;;;;;6.80;1.40;;;9.20;92.70;;;;;;5083712;28;20023;-88
2021/03/15 10:17:07;;;;;;;12.15;2.67;;;9.20;92.80;;;;;;5084771;28;20024;-88
2021/03/15 10:19:34;;;;;;;10.60;2.33;;;9.20;93.00;;;;;;5075017;28;20024;-88
2021/03/15 10:22:14;;;;;;;9.18;1.38;;;9.20;93.00;;;;;;5081592;28;20095;-88
2021/03/15 10:24:41;;;;;;;12.50;1.83;;;9.30;93.40;;;;;;5107749;28;20459;-86
2021/03/15 10:27:14;;;;;;;9.48;1.30;;;9.40;92.50;;;;;;5086264;28;20043;-87
2021/03/15 10:29:40;;;;;;;12.73;2.78;;;9.40;92.40;;;;;;5076479;28;20017;-87
2021/03/15 10:32:06;;;;;;;9.00;2.33;;;9.40;91.50;;;;;;5087450;28;20057;-87
2021/03/15 10:34:32;;;;;;;13.43;1.60;;;9.40;91.20;;;;;;5088414;28;20034;-88
2021/03/15 10:36:58;;;;;;;13.85;1.80;;;9.50;91.40;;;;;;5087128;28;20106;-86
2021/03/15 10:39:26;;;;;;;9.95;1.58;;;9.50;91.40;;;;;;5074116;28;20020;-86
2021/03/15 10:41:53;;;;;;;5.53;1.80;;;9.60;90.70;;;;;;5073719;28;20036;-86
2021/03/15 10:44:24;;;;;;;6.78;1.20;;;9.70;91.00;;;;;;5073737;28;20023;-86
2021/03/15 10:46:54;;;;;;;;;;;9.70;91.30;;;;;;5070705;28;20043;-86
2021/03/15 10:49:25;;;;;;;8.45;1.50;;;9.80;91.00;;;;;;5092263;28;20339;-86
2021/03/15 10:51:53;;;;;;;8.75;1.40;;;9.80;90.60;;;;;;5094877;28;20022;-85
2021/03/15 10:54:45;;;;;;;7.50;1.83;;;9.80;90.70;;;;;;5098173;28;20436;-85
2021/03/15 10:57:19;;;;;;;8.05;1.38;;;9.90;89.80;;;;;;5065847;28;20036;-85
2021/03/15 10:59:47;;;;;;;10.70;1.80;;;9.90;89.30;;;;;;5090144;28;20044;-86
2021/03/15 11:02:26;;;;;;;5.68;1.23;;;9.80;90.30;;;;;;5075299;28;20017;-87
2021/03/15 11:04:59;;;;;;;6.65;2.03;;;9.90;90.60;;;;;;5082342;28;20476;-87
2021/03/15 11:07:36;;;;;;;10.27;1.90;;;9.90;91.20;;;;;;5092066;28;20502;-87
2021/03/15 11:10:14;;;;;;;7.45;1.58;;;10.00;90.40;;;;;;5066284;28;20468;-86
2021/03/15 11:12:43;;;;;;;8.23;1.60;;;10.00;90.20;;;;;;5086553;28;20036;-85
2021/03/15 11:15:14;;;;;;;9.13;1.77;;;10.00;90.20;;;;;;5074083;28;20536;-86
2021/03/15 11:18:07;;;;;;;8.07;1.02;;;10.10;87.70;;;;;;5080228;28;20067;-85
2021/03/15 11:20:40;;;;;;;7.78;1.88;;;10.20;86.90;;;;;;5075493;28;20563;-86
2021/03/15 11:23:07;;;;;;;5.85;0.98;;;10.20;84.50;;;;;;5092320;28;20020;-85
2021/03/15 11:25:33;;;;;;;7.13;1.25;;;10.30;83.80;;;;;;5068395;28;20028;-86
2021/03/15 11:28:13;;;;;;;6.85;1.77;;;10.30;83.00;;;;;;5088272;28;20024;-86
2021/03/15 11:30:42;;;;;;;9.85;2.20;;;10.30;82.90;;;;;;5090678;28;20023;-87
2021/03/15 11:33:13;;;;;;;6.78;1.25;;;10.30;79.70;;;;;;5083529;28;20062;-87
2021/03/15 11:35:42;;;;;;;8.60;1.40;;;10.30;82.90;;;;;;5065397;28;20048;-87
2021/03/15 11:38:08;;;;;;;6.05;1.35;;;10.30;84.60;;;;;;5039328;28;20517;-87
2021/03/15 11:40:40;;;;;;;6.75;1.48;;;10.30;85.40;;;;;;5087793;28;20086;-87
2021/03/15 11:43:08;;;;;;;9.63;1.70;;;10.30;85.40;;;;;;5086193;28;20036;-87
2021/03/15 11:45:34;;;;;;;7.68;2.60;;;10.30;85.70;;;;;;5075081;28;20020;-87
2021/03/15 11:48:01;;;;;;;7.15;1.48;;;10.30;87.40;;;;;;5049994;28;20043;-87
2021/03/15 11:50:28;;;;;;;7.18;1.60;;;10.40;87.30;;;;;;5062932;28;20020;-87
2021/03/15 11:52:54;;;;;;;12.60;2.35;;;10.40;87.70;;;;;;5073015;28;20104;-87
2021/03/15 11:55:21;;;;;;;11.85;2.40;;;10.50;87.90;;;;;;5064804;28;20036;-86
2021/03/15 11:57:47;;;;;;;10.00;2.50;;;10.50;89.10;;;;;;5098277;28;20024;-85
2021/03/15 12:00:15;;;;;;;10.65;2.42;;;10.50;88.80;;;;;;5078588;28;20046;-87
2021/03/15 12:02:41;;;;;;;10.73;2.10;;;10.60;88.80;;;;;;5089264;28;20467;-86
2021/03/15 12:05:09;;;;;;;10.52;1.88;;;10.70;88.10;;;;;;5072505;28;20025;-86
2021/03/15 12:07:35;;;;;;;10.18;2.05;;;10.70;86.30;;;;;;5091915;28;20063;-88
2021/03/15 12:10:01;;;;;;;17.40;2.80;;;10.70;86.20;;;;;;5052552;28;20020;-87
2021/03/15 12:12:27;;;;;;;13.27;2.20;;;10.80;88.80;;;;;;5124993;28;20024;-87
2021/03/15 12:14:54;;;;;;;13.60;2.65;;;10.80;88.30;;;;;;5097523;28;20024;-87
2021/03/15 12:17:19;;;;;;;8.38;1.63;;;10.80;86.00;;;;;;5098251;28;20076;-87
2021/03/15 12:19:45;;;;;;;7.38;1.52;;;10.80;88.80;;;;;;5084460;28;20045;-88
2021/03/15 12:22:11;;;;;;;9.63;2.08;;;10.80;89.50;;;;;;5083711;28;20047;-87
2021/03/15 12:24:36;;;;;;;10.95;2.30;;;10.80;90.50;;;;;;5081329;28;20452;-87
2021/03/15 12:27:02;;;;;;;12.90;2.28;;;10.90;91.30;;;;;;5080730;28;20028;-86
2021/03/15 12:29:29;;;;;;;8.13;2.08;;;11.00;90.80;;;;;;5077207;28;20032;-86
2021/03/15 12:31:54;;;;;;;8.45;1.55;;;11.00;90.70;;;;;;5092958;28;20034;-86
2021/03/15 12:34:21;;;;;;;12.55;2.25;;;11.00;90.80;;;;;;5057608;28;20085;-85
2021/03/15 12:36:46;;;;;;;9.05;1.83;;;11.10;90.80;;;;;;5092388;28;20050;-83
2021/03/15 12:39:12;;;;;;;11.93;2.13;;;11.10;91.00;;;;;;5059671;28;20021;-85
2021/03/15 12:41:38;;;;;;;9.18;2.13;;;11.20;91.30;;;;;;5054801;28;20059;-84
2021/03/15 12:44:04;;;;;;;10.43;1.88;;;11.30;91.50;;;;;;5086355;28;20035;-86
2021/03/15 12:46:30;;;;;;;9.82;1.92;;;11.40;89.50;;;;;;5092300;28;20015;-87
2021/03/15 12:48:56;;;;;;;8.75;1.70;;;11.40;85.80;;;;;;5055514;28;20036;-87
2021/03/15 12:51:22;;;;;;;9.75;1.95;;;11.40;86.80;;;;;;5086507;28;20012;-87
2021/03/15 12:53:48;;;;;;;8.23;1.40;;;11.40;87.30;;;;;;5064903;28;20033;-89
2021/03/15 12:56:13;;;;;;;8.45;1.70;;;11.40;85.30;;;;;;5052002;28;20045;-88
2021/03/15 12:58:39;;;;;;;6.95;1.45;;;11.30;86.20;;;;;;5060620;28;20036;-89
2021/03/15 13:01:05;;;;;;;4.22;1.10;;;11.20;88.30;;;;;;5073419;28;20060;-89
2021/03/15 13:03:31;;;;;;;4.68;1.15;;;11.20;88.70;;;;;;5053049;28;20025;-89
2021/03/15 13:05:56;;;;;;;5.15;1.15;;;11.20;89.00;;;;;;5053436;28;20036;-89